Time;durP1;ratioP1;P1;durP2;ratioP2;P2;SDS_P1;SDS_P2;PMS_P1;PMS_P2;Temp;Humidity;BMP_temperature;BMP_pressure;BME280_temperature;BME280_humidity;BME280_pressure;Samples;Min_cycle;Max_cycle;Signal;HPM_P1;HPM_P2
2022/10/25 00:03:55;;;;;;;;;;;15.10;99.90;;;13.13;100.00;100114.81;10344479;28;20020;-83
2022/10/25 00:08:58;;;;;;;;;;;15.10;99.90;;;13.13;100.00;100119.28;10331340;28;19934;-83
2022/10/25 00:14:19;;;;;;;;;;;15.00;99.90;;;13.10;100.00;100146.34;10363719;28;19933;-82
2022/10/25 00:19:22;;;;;;;;;;;15.00;99.90;;;13.04;100.00;100153.25;10343844;28;19934;-82
2022/10/25 00:24:25;;;;;;;;;;;14.90;99.90;;;13.00;100.00;100159.97;10312354;28;19934;-82
2022/10/25 00:29:28;;;;;;;;;;;14.90;99.90;;;12.96;100.00;100148.03;10335689;28;19934;-82
2022/10/25 00:34:31;;;;;;;;;;;14.90;99.90;;;12.97;100.00;100146.19;10329190;28;19941;-82
2022/10/25 00:39:33;;;;;;;;;;;14.90;99.90;;;12.97;100.00;100178.19;10339212;28;19934;-82
2022/10/25 00:44:39;;;;;;;;;;;14.80;99.90;;;12.96;100.00;100161.34;10341037;28;19973;-82
2022/10/25 00:49:43;;;;;;;;;;;14.80;99.90;;;12.98;100.00;100159.31;10359144;28;20417;-82
2022/10/25 00:54:49;;;;;;;;;;;14.80;99.90;;;13.00;100.00;100162.63;10327097;28;19934;-82
2022/10/25 00:59:52;;;;;;;;;;;14.80;99.90;;;13.01;100.00;100160.78;10330982;28;19941;-82
2022/10/25 01:04:55;;;;;;;;;;;14.80;99.90;;;13.05;100.00;100162.06;10332594;28;20389;-82
2022/10/25 01:09:58;;;;;;;;;;;14.80;99.90;;;13.09;100.00;100161.53;10324135;28;19937;-82
2022/10/25 01:15:01;;;;;;;;;;;14.80;99.90;;;13.12;100.00;100153.13;10333077;28;19981;-82
2022/10/25 01:20:44;;;;;;;;;;;14.80;99.90;;;13.16;100.00;100155.47;10342895;28;19938;-82
2022/10/25 01:25:54;;;;;;;;;;;14.90;99.90;;;13.18;100.00;100164.91;10375510;28;19934;-82
2022/10/25 01:31:31;;;;;;;;;;;14.90;99.90;;;13.23;100.00;100156.38;10355625;28;20422;-82
2022/10/25 01:36:42;;;;;;;;;;;14.90;99.90;;;13.25;100.00;100141.84;10348672;28;19933;-82
2022/10/25 01:41:59;;;;;;;;;;;14.90;99.90;;;13.32;100.00;100149.94;10340421;28;19933;-82
2022/10/25 01:47:05;;;;;;;;;;;15.00;99.90;;;13.37;100.00;100155.53;10342213;28;19988;-82
2022/10/25 01:52:08;;;;;;;;;;;15.00;99.90;;;13.37;100.00;100136.84;10328891;28;20001;-82
2022/10/25 01:58:10;;;;;;;;;;;15.00;99.90;;;13.36;100.00;100149.38;10328901;28;20047;-81
2022/10/25 02:03:21;;;;;;;;;;;15.00;99.90;;;13.39;100.00;100156.19;10265630;28;19938;-82
2022/10/25 02:08:49;;;;;;;;;;;15.10;99.90;;;13.43;100.00;100135.28;10337159;28;19933;-82
2022/10/25 02:14:14;;;;;;;;;;;15.10;99.90;;;13.45;100.00;100130.59;10343500;28;19956;-83
2022/10/25 02:19:22;;;;;;;;;;;15.20;99.90;;;13.46;100.00;100122.38;10342986;28;19933;-83
2022/10/25 02:24:27;;;;;;;;;;;15.20;99.90;;;13.42;100.00;100118.44;10382375;28;19941;-83
2022/10/25 02:29:31;;;;;;;;;;;15.20;99.90;;;13.36;100.00;100117.34;10345704;28;19933;-82
2022/10/25 02:34:34;;;;;;;;;;;15.20;99.90;;;13.28;100.00;100125.47;10363256;28;19985;-83
2022/10/25 02:39:37;;;;;;;;;;;15.10;99.90;;;13.21;100.00;100121.91;10326989;28;19934;-82
2022/10/25 02:44:57;;;;;;;;;;;15.10;99.90;;;13.13;100.00;100122.81;10362204;28;19933;-83
2022/10/25 02:50:00;;;;;;;;;;;15.00;99.90;;;13.05;100.00;100132.72;10358483;28;19934;-82
2022/10/25 02:55:03;;;;;;;;;;;14.90;99.90;;;12.98;100.00;100150.50;10325767;28;19941;-82
2022/10/25 03:00:07;;;;;;;;;;;14.80;99.90;;;12.89;100.00;100140.91;10327553;28;19937;-82
2022/10/25 03:05:10;;;;;;;;;;;14.70;99.90;;;12.82;100.00;100152.31;10347498;28;19934;-82
2022/10/25 03:10:12;;;;;;;;;;;14.60;99.90;;;12.76;100.00;100154.91;10360870;28;19934;-81
2022/10/25 03:15:15;;;;;;;;;;;14.60;99.90;;;12.80;100.00;100166.88;10362909;28;20353;-82
2022/10/25 03:20:18;;;;;;;;;;;14.60;99.90;;;12.90;100.00;100167.44;10354536;28;19934;-82
2022/10/25 03:25:21;;;;;;;;;;;14.70;99.90;;;13.00;100.00;100159.97;10346302;28;20423;-82
2022/10/25 03:30:25;;;;;;;;;;;14.80;99.90;;;13.10;100.00;100135.69;10347479;28;19934;-83
2022/10/25 03:35:27;;;;;;;;;;;14.80;99.90;;;13.18;100.00;100153.41;10346637;28;20020;-82
2022/10/25 03:40:30;;;;;;;;;;;14.90;99.90;;;13.22;100.00;100152.06;10327362;28;19934;-82
2022/10/25 03:45:33;;;;;;;;;;;14.90;99.90;;;13.27;100.00;100150.50;10330515;28;19957;-82
2022/10/25 03:50:36;;;;;;;;;;;15.00;99.90;;;13.29;100.00;100161.81;10346893;28;19933;-82
2022/10/25 03:55:39;;;;;;;;;;;15.00;99.90;;;13.31;100.00;100154.47;10345103;28;20024;-82
2022/10/25 04:00:42;;;;;;;;;;;15.00;99.90;;;13.31;100.00;100153.59;10359085;28;20028;-82
2022/10/25 04:05:45;;;;;;;;;;;15.00;99.90;;;13.29;100.00;100153.81;10346622;28;19933;-82
2022/10/25 04:10:47;;;;;;;;;;;15.00;99.90;;;13.29;100.00;100147.66;10361539;28;19934;-82
2022/10/25 04:15:50;;;;;;;;;;;14.90;99.90;;;13.28;100.00;100136.13;10394026;28;19941;-83
2022/10/25 04:20:57;;;;;;;;;;;15.00;99.90;;;13.24;100.00;100137.53;10342558;28;19940;-82
2022/10/25 04:26:00;;;;;;;;;;;14.90;99.90;;;13.24;100.00;100139.38;10344913;28;19938;-82
2022/10/25 04:31:03;;;;;;;;;;;14.90;99.90;;;13.24;100.00;100142.84;10339043;28;19934;-83
2022/10/25 04:36:06;;;;;;;;;;;14.90;99.90;;;13.25;100.00;100128.50;10354663;28;19985;-82
2022/10/25 04:41:09;;;;;;;;;;;15.00;99.90;;;13.28;100.00;100154.00;10359589;28;19934;-82
2022/10/25 04:46:12;;;;;;;;;;;15.00;99.90;;;13.27;100.00;100142.50;10333010;28;19959;-83
2022/10/25 04:51:15;;;;;;;;;;;15.00;99.90;;;13.28;100.00;100146.81;10342673;28;19942;-82
2022/10/25 04:56:18;;;;;;;;;;;15.10;99.90;;;13.32;100.00;100149.94;10345925;28;19938;-82
2022/10/25 05:01:21;;;;;;;;;;;15.10;99.90;;;13.39;100.00;100161.53;10351168;28;20491;-83
2022/10/25 05:06:25;;;;;;;;;;;15.10;99.90;;;13.47;100.00;100139.22;10327777;28;19962;-83
2022/10/25 05:11:28;;;;;;;;;;;15.20;99.90;;;13.50;100.00;100141.53;10334124;28;19941;-82
2022/10/25 05:16:33;;;;;;;;;;;15.30;99.90;;;13.53;100.00;100147.31;10334348;28;19985;-83
2022/10/25 05:21:36;;;;;;;;;;;15.20;99.90;;;13.54;100.00;100143.63;10329668;28;19937;-84
2022/10/25 05:26:39;;;;;;;;;;;15.20;99.90;;;13.56;100.00;100149.63;10325671;28;19934;-84
2022/10/25 05:31:42;;;;;;;;;;;15.30;99.90;;;13.61;100.00;100157.91;10346697;28;19972;-82
2022/10/25 05:36:45;;;;;;;;;;;15.30;99.90;;;13.64;100.00;100175.38;10313813;28;19934;-84
2022/10/25 05:41:48;;;;;;;;;;;15.40;99.90;;;13.68;100.00;100183.84;10343153;28;19934;-84
2022/10/25 05:46:52;;;;;;;;;;;15.40;99.90;;;13.70;100.00;100204.00;10335719;28;19934;-83
2022/10/25 05:51:54;;;;;;;;;;;15.50;99.90;;;13.77;100.00;100212.91;10330020;28;20050;-84
2022/10/25 05:56:57;;;;;;;;;;;15.50;99.90;;;13.84;100.00;100229.00;10335139;28;19973;-84
2022/10/25 06:02:00;;;;;;;;;;;15.50;99.90;;;13.87;100.00;100223.28;10342282;28;19933;-83
2022/10/25 06:07:03;;;;;;;;;;;15.60;99.90;;;13.88;99.64;100219.59;10380101;28;19941;-85
2022/10/25 06:12:06;;;;;;;;;;;15.60;99.90;;;13.87;99.22;100225.97;10349432;28;19937;-85
2022/10/25 06:17:12;;;;;;;;;;;15.60;99.90;;;13.82;98.99;100247.88;10381764;28;20428;-84
2022/10/25 06:22:15;;;;;;;;;;;15.60;99.90;;;13.76;98.87;100267.34;10341803;28;20035;-84
2022/10/25 06:27:18;;;;;;;;;;;15.50;99.90;;;13.75;98.94;100270.19;10348842;28;19934;-84
2022/10/25 06:32:20;;;;;;;;;;;15.50;99.90;;;13.73;98.80;100269.53;10356548;28;20024;-84
2022/10/25 06:37:23;;;;;;;;;;;15.50;99.90;;;13.73;99.06;100280.22;10361558;28;19938;-84
2022/10/25 06:42:26;;;;;;;;;;;15.40;99.90;;;13.72;99.00;100295.41;10339418;28;19934;-82
2022/10/25 06:47:29;;;;;;;;;;;15.40;99.90;;;13.73;99.07;100274.88;10354526;28;19934;-84
2022/10/25 06:52:31;;;;;;;;;;;15.40;99.90;;;13.71;98.83;100264.38;10330912;28;19987;-84
2022/10/25 06:57:34;;;;;;;;;;;15.40;99.90;;;13.72;98.71;100275.91;10354489;28;19926;-84
2022/10/25 07:02:37;;;;;;;;;;;15.40;99.90;;;13.74;98.73;100280.06;10344694;28;20021;-84
2022/10/25 07:07:40;;;;;;;;;;;15.50;99.90;;;13.77;98.40;100277.00;10345390;28;19941;-83
2022/10/25 07:12:43;;;;;;;;;;;15.50;99.90;;;13.81;97.97;100277.47;10329499;28;19934;-85
2022/10/25 07:17:45;;;;;;;;;;;15.50;99.90;;;13.84;97.73;100288.59;10339323;28;20020;-86
2022/10/25 07:22:49;;;;;;;;;;;15.60;99.90;;;13.86;97.23;100291.09;10363063;28;19934;-84
2022/10/25 07:27:51;;;;;;;;;;;15.60;99.90;;;13.88;96.87;100297.06;10361243;28;20022;-84
2022/10/25 07:32:55;;;;;;;;;;;15.60;99.90;;;13.89;96.77;100296.03;10379478;28;19977;-82
2022/10/25 07:37:58;;;;;;;;;;;15.60;99.90;;;13.90;96.67;100311.06;10363237;28;19933;-82
2022/10/25 07:43:00;;;;;;;;;;;15.60;99.90;;;13.91;96.46;100302.88;10343100;28;19985;-81
2022/10/25 07:48:04;;;;;;;;;;;15.60;99.90;;;13.93;96.15;100306.19;10329282;28;19933;-87
2022/10/25 07:53:07;;;;;;;;;;;15.60;99.90;;;14.00;96.14;100306.25;10339483;28;19930;-82
2022/10/25 07:58:10;;;;;;;;;;;15.70;99.90;;;14.07;95.93;100309.00;10342954;28;19934;-84
2022/10/25 08:03:15;;;;;;;;;;;15.80;99.90;;;14.17;95.22;100299.69;10315928;28;19934;-85
2022/10/25 08:08:19;;;;;;;;;;;15.80;99.90;;;14.30;94.75;100314.19;10325023;28;19934;-83
2022/10/25 08:13:22;;;;;;;;;;;16.00;99.90;;;14.42;93.89;100307.34;10318503;28;19934;-84
2022/10/25 08:18:25;;;;;;;;;;;16.10;99.90;;;14.50;93.56;100311.75;10355325;28;20025;-86
2022/10/25 08:23:30;;;;;;;;;;;16.20;99.90;;;14.49;92.64;100310.94;10362165;28;20419;-85
2022/10/25 08:28:33;;;;;;;;;;;16.20;99.90;;;14.46;92.38;100303.28;10331434;28;19933;-81
2022/10/25 08:33:36;;;;;;;;;;;16.20;99.90;;;14.45;91.86;100310.47;10331229;28;19934;-81
2022/10/25 08:38:38;;;;;;;;;;;16.20;99.90;;;14.48;91.83;100311.13;10329436;28;19941;-90
2022/10/25 08:44:10;;;;;;;;;;;16.20;99.90;;;14.51;91.56;100313.41;10329066;28;19941;-85
2022/10/25 08:49:42;;;;;;;;;;;16.30;99.90;;;14.52;91.22;100323.94;10360653;28;19981;-82
2022/10/25 08:54:46;;;;;;;;;;;16.30;99.90;;;14.51;90.92;100324.09;10347509;28;20278;-86
2022/10/25 08:59:54;;;;;;;;;;;16.30;99.90;;;14.53;90.67;100330.09;10343504;28;19933;-90
2022/10/25 09:04:56;;;;;;;;;;;16.30;99.90;;;14.55;90.21;100331.56;10344085;28;19934;-85
2022/10/25 09:09:59;;;;;;;;;;;16.30;99.90;;;14.56;89.96;100345.75;10319944;28;19941;-84
2022/10/25 09:15:20;;;;;;;;;;;16.30;99.90;;;14.55;90.18;100342.25;10343101;28;19984;-86
2022/10/25 09:20:31;;;;;;;;;;;16.30;99.90;;;14.54;89.95;100348.63;10321904;28;20056;-85
2022/10/25 09:26:01;;;;;;;;;;;16.30;99.90;;;14.53;89.82;100344.31;10348157;28;19938;-86
2022/10/25 09:31:07;;;;;;;;;;;16.30;99.90;;;14.54;89.02;100348.63;10360172;28;19934;-83
2022/10/25 09:36:11;;;;;;;;;;;16.30;99.90;;;14.57;88.82;100345.56;10367342;28;19941;-84
2022/10/25 09:41:23;;;;;;;;;;;16.30;99.90;;;14.64;88.64;100346.47;10337214;28;19941;-85
2022/10/25 09:46:36;;;;;;;;;;;16.40;99.90;;;14.70;88.30;100353.75;10329496;28;19933;-85
2022/10/25 09:51:56;;;;;;;;;;;16.40;99.90;;;14.77;87.93;100353.81;10347569;28;20403;-82
2022/10/25 09:56:59;;;;;;;;;;;16.50;99.90;;;14.84;87.39;100359.22;10333799;28;19942;-81
2022/10/25 10:02:02;;;;;;;;;;;16.50;99.90;;;14.89;86.04;100356.78;10357704;28;20393;-84
2022/10/25 10:07:15;;;;;;;;;;;16.60;99.90;;;14.97;84.73;100353.97;10365455;28;19941;-81
2022/10/25 10:12:50;;;;;;;;;;;16.60;99.90;;;15.01;84.19;100359.78;10344528;28;19934;-80
2022/10/25 10:18:19;;;;;;;;;;;16.70;99.90;;;15.03;84.01;100358.56;10322002;28;19941;-81
2022/10/25 10:23:23;;;;;;;;;;;16.70;99.90;;;14.97;84.94;100364.66;10348306;28;19934;-81
2022/10/25 10:28:25;;;;;;;;;;;16.70;99.90;;;14.89;85.99;100357.63;10337443;28;19940;-80
2022/10/25 10:33:31;;;;;;;;;;;16.60;99.90;;;14.85;86.74;100352.84;10363278;28;19989;-81
2022/10/25 10:38:51;;;;;;;;;;;16.50;99.90;;;14.88;87.71;100345.25;10361030;28;19933;-82
2022/10/25 10:44:13;;;;;;;;;;;16.50;99.90;;;14.92;87.70;100343.00;10354286;28;19940;-80
2022/10/25 10:49:17;;;;;;;;;;;16.60;99.90;;;15.02;88.04;100350.72;10351120;28;19933;-81
2022/10/25 10:54:24;;;;;;;;;;;16.70;99.90;;;15.31;87.70;100365.78;10338586;28;19957;-82
2022/10/25 10:59:33;;;;;;;;;;;16.90;99.90;;;15.63;85.99;100367.06;10340511;28;19957;-80
2022/10/25 11:04:53;;;;;;;;;;;17.30;99.90;;;15.87;84.43;100363.06;10365049;28;19938;-79
2022/10/25 11:10:14;;;;;;;;;;;17.50;99.90;;;16.31;82.20;100351.91;10335640;28;20018;-80
2022/10/25 11:15:17;;;;;;;;;;;18.00;99.90;;;16.72;81.36;100343.78;10335271;28;19992;-82
2022/10/25 11:20:25;;;;;;;;;;;18.50;99.90;;;17.01;79.51;100347.94;10332517;28;19934;-80
2022/10/25 11:25:37;;;;;;;;;;;18.70;99.90;;;17.22;78.83;100360.34;10331680;28;20018;-81
2022/10/25 11:31:18;;;;;;;;;;;18.90;99.90;;;17.41;75.55;100353.31;10345078;28;20073;-83
2022/10/25 11:36:47;;;;;;;;;;;19.10;99.90;;;17.53;72.85;100351.63;10331359;28;19934;-84
2022/10/25 11:41:54;;;;;;;;;;;19.20;99.90;;;17.51;70.33;100336.75;10340797;28;19934;-80
2022/10/25 11:47:31;;;;;;;;;;;19.10;99.90;;;17.49;71.31;100349.56;10362265;28;20405;-82
2022/10/25 11:52:58;;;;;;;;;;;19.10;99.90;;;17.53;71.32;100348.94;10340690;28;20305;-84
2022/10/25 11:58:29;;;;;;;;;;;19.10;99.90;;;17.56;71.47;100345.81;10343637;28;20381;-82
2022/10/25 12:03:46;;;;;;;;;;;19.20;99.90;;;17.56;71.49;100350.38;10351403;28;19938;-83
2022/10/25 12:09:08;;;;;;;;;;;19.20;99.90;;;17.60;72.00;100357.81;10322852;28;19942;-86
2022/10/25 12:14:14;;;;;;;;;;;19.20;99.90;;;17.71;72.13;100359.03;10334309;28;20420;-86
2022/10/25 12:19:23;;;;;;;;;;;19.30;99.90;;;17.73;69.42;100361.53;10350788;28;19933;-86
2022/10/25 12:24:33;;;;;;;;;;;19.30;99.40;;;17.70;68.45;100357.38;10333892;28;19941;-84
2022/10/25 12:29:40;;;;;;;;;;;19.30;99.50;;;17.66;68.28;100356.16;10335439;28;20481;-84
2022/10/25 12:34:46;;;;;;;;;;;19.30;99.60;;;17.63;67.78;100351.19;10334440;28;19938;-85
2022/10/25 12:39:51;;;;;;;;;;;19.20;99.30;;;17.60;68.27;100362.38;10342629;28;19941;-83
2022/10/25 12:45:10;;;;;;;;;;;19.20;99.60;;;17.60;67.68;100363.19;10320636;28;30832;-80
2022/10/25 12:50:49;;;;;;;;;;;19.20;99.20;;;17.59;67.63;100358.03;10331464;28;20034;-90
2022/10/25 12:55:55;;;;;;;;;;;19.20;99.00;;;17.61;67.69;100339.81;10321931;28;19941;-84
2022/10/25 13:01:20;;;;;;;;;;;19.20;99.00;;;17.66;67.63;100334.66;10376209;28;19933;-86
2022/10/25 13:06:28;;;;;;;;;;;19.30;99.30;;;17.72;66.97;100349.13;10338423;28;19934;-84
2022/10/25 13:11:40;;;;;;;;;;;19.30;98.50;;;17.72;66.93;100347.28;10346815;28;19934;-87
2022/10/25 13:16:43;;;;;;;;;;;19.30;98.30;;;17.77;66.43;100357.41;10340498;28;19934;-92
2022/10/25 13:21:52;;;;;;;;;;;19.40;97.80;;;17.80;65.78;100357.78;10337435;28;19933;-93
2022/10/25 13:27:13;;;;;;;;;;;19.40;97.40;;;17.77;64.31;100352.84;10339804;28;19934;-85
2022/10/25 13:32:19;;;;;;;;;;;19.40;96.60;;;17.81;65.17;100359.47;10321424;28;19969;-84
2022/10/25 13:37:31;;;;;;;;;;;19.50;97.40;;;17.85;65.71;100365.22;10357289;28;19934;-85
2022/10/25 13:42:36;;;;;;;;;;;19.50;97.30;;;17.87;65.55;100361.31;10349372;28;19940;-85
2022/10/25 13:47:44;;;;;;;;;;;19.50;97.30;;;17.91;65.94;100354.44;10348963;28;19942;-85
2022/10/25 13:52:53;;;;;;;;;;;19.60;97.60;;;17.94;65.67;100365.84;10324324;28;19934;-85
2022/10/25 13:58:00;;;;;;;;;;;19.60;97.30;;;17.89;65.81;100367.28;10348551;28;19940;-84
2022/10/25 14:03:11;;;;;;;;;;;19.60;97.30;;;17.86;65.66;100365.00;10341946;28;19940;-85
2022/10/25 14:08:45;;;;;;;;;;;19.50;96.90;;;17.81;66.18;100366.66;10360892;28;19934;-86
2022/10/25 14:13:57;;;;;;;;;;;19.50;97.40;;;17.77;66.91;100374.34;10331069;28;19934;-85
2022/10/25 14:19:13;;;;;;;;;;;19.50;97.80;;;17.72;67.34;100376.84;10349772;28;19934;-85
2022/10/25 14:24:18;;;;;;;;;;;19.40;97.90;;;17.65;66.98;100382.19;10333951;28;20290;-85
2022/10/25 14:29:22;;;;;;;;;;;19.30;97.70;;;17.61;67.15;100385.50;10348264;28;20051;-85
2022/10/25 14:34:27;;;;;;;;;;;19.30;98.00;;;17.54;67.23;100373.94;10336095;28;20399;-85
2022/10/25 14:39:30;;;;;;;;;;;19.20;97.50;;;17.48;66.18;100380.16;10346121;28;19945;-85
2022/10/25 14:44:45;;;;;;;;;;;19.20;97.30;;;17.38;66.28;100376.03;10350683;28;19941;-91
2022/10/25 14:49:48;;;;;;;;;;;19.10;97.10;;;17.28;66.39;100381.00;10355824;28;19940;-89
2022/10/25 14:54:58;;;;;;;;;;;19.00;97.20;;;17.18;66.85;100380.59;10321791;28;19940;-90
2022/10/25 15:00:03;;;;;;;;;;;18.90;97.20;;;17.06;66.48;100392.97;10354003;28;19941;-91
2022/10/25 15:05:16;;;;;;;;;;;18.80;97.30;;;16.96;67.00;100387.16;10345248;28;19934;-89
2022/10/25 15:10:42;;;;;;;;;;;18.70;97.50;;;16.82;67.50;100397.06;10362310;28;19941;-88
2022/10/25 15:15:46;;;;;;;;;;;18.60;97.40;;;16.72;68.01;100397.44;10360361;28;19933;-89
2022/10/25 15:21:20;;;;;;;;;;;18.50;97.80;;;16.57;68.65;100396.78;10312557;28;19941;-89
2022/10/25 15:26:29;;;;;;;;;;;18.40;98.00;;;16.33;69.44;100403.50;10342567;28;19934;-89
2022/10/25 15:31:42;;;;;;;;;;;18.10;98.30;;;16.07;70.65;100412.22;10349863;28;20702;-91
2022/10/25 15:36:45;;;;;;;;;;;17.90;98.70;;;15.83;71.07;100404.69;10362660;28;19933;-90
2022/10/25 15:41:48;;;;;;;;;;;17.70;99.00;;;15.57;72.13;100403.47;10350767;28;20068;-90
2022/10/25 15:46:51;;;;;;;;;;;17.50;99.50;;;15.39;72.89;100405.78;10361274;28;19933;-91
2022/10/25 15:51:54;;;;;;;;;;;17.20;99.70;;;15.14;73.36;100400.84;10336844;28;19978;-89
2022/10/25 15:56:57;;;;;;;;;;;17.00;99.80;;;14.90;73.85;100396.72;10326142;28;19980;-87
2022/10/25 16:02:02;;;;;;;;;;;16.80;99.90;;;14.68;75.12;100406.56;10347250;28;20353;-87
2022/10/25 16:07:05;;;;;;;;;;;16.50;99.90;;;14.43;75.61;100402.56;10346735;28;20017;-87
2022/10/25 16:12:12;;;;;;;;;;;16.30;99.90;;;14.22;76.65;100405.19;10359106;28;19934;-87
2022/10/25 16:17:15;;;;;;;;;;;16.10;99.90;;;14.01;77.20;100409.44;10347345;28;19956;-87
2022/10/25 16:22:18;;;;;;;;;;;15.80;99.90;;;13.79;78.29;100416.53;10344899;28;19988;-87
2022/10/25 16:27:21;;;;;;;;;;;15.60;99.90;;;13.58;78.86;100435.94;10340482;28;19942;-86
2022/10/25 16:32:24;;;;;;;;;;;15.40;99.90;;;13.43;79.91;100437.72;10342870;28;20010;-87
2022/10/25 16:37:26;;;;;;;;;;;15.30;99.90;;;13.37;80.49;100441.97;10361958;28;19934;-87
2022/10/25 16:42:32;;;;;;;;;;;15.20;99.90;;;13.27;81.27;100446.72;10340265;28;19985;-87
2022/10/25 16:47:35;;;;;;;;;;;15.10;99.90;;;13.25;82.17;100438.06;10339200;28;19934;-87
2022/10/25 16:52:41;;;;;;;;;;;15.10;99.90;;;13.27;82.68;100436.06;10317794;28;19934;-87
2022/10/25 16:57:44;;;;;;;;;;;15.10;99.90;;;13.28;83.15;100447.56;10316996;28;19941;-86
2022/10/25 17:02:47;;;;;;;;;;;15.10;99.90;;;13.20;83.13;100450.28;10322141;28;20037;-87
2022/10/25 17:07:51;;;;;;;;;;;15.10;99.90;;;13.07;83.19;100449.03;10304594;28;19938;-87
2022/10/25 17:13:00;;;;;;;;;;;14.90;99.90;;;12.91;83.14;100465.13;10318082;28;19941;-87
2022/10/25 17:18:03;;;;;;;;;;;14.80;99.90;;;12.73;83.59;100475.25;10316528;28;19934;-87
2022/10/25 17:23:06;;;;;;;;;;;14.60;99.90;;;12.63;84.61;100472.78;10342824;28;19941;-87
2022/10/25 17:28:09;;;;;;;;;;;14.50;99.90;;;12.63;85.62;100479.94;10339108;28;19941;-86
2022/10/25 17:33:12;;;;;;;;;;;14.50;99.90;;;12.68;86.11;100478.44;10343087;28;19933;-87
2022/10/25 17:38:14;;;;;;;;;;;14.50;99.90;;;12.77;86.64;100484.53;10343268;28;20401;-86
2022/10/25 17:43:18;;;;;;;;;;;14.50;99.90;;;12.85;86.90;100485.34;10350320;28;20009;-86
2022/10/25 17:48:21;;;;;;;;;;;14.60;99.90;;;12.95;86.91;100485.09;10336542;28;20350;-85
2022/10/25 17:53:24;;;;;;;;;;;14.70;99.90;;;13.04;86.74;100476.03;10335011;28;20004;-85
2022/10/25 17:58:26;;;;;;;;;;;14.70;99.90;;;13.14;86.48;100483.81;10335766;28;19934;-87
2022/10/25 18:03:30;;;;;;;;;;;14.90;99.90;;;13.18;86.10;100484.28;10347304;28;19933;-87
2022/10/25 18:08:35;;;;;;;;;;;14.90;99.90;;;13.15;85.83;100484.66;10333057;28;20435;-87
2022/10/25 18:13:39;;;;;;;;;;;14.90;99.90;;;13.13;85.70;100482.16;10351476;28;20282;-87
2022/10/25 18:18:42;;;;;;;;;;;14.90;99.90;;;13.10;86.09;100474.50;10333871;28;19942;-87
2022/10/25 18:23:45;;;;;;;;;;;14.90;99.90;;;13.09;85.86;100473.69;10341205;28;19977;-87
2022/10/25 18:28:48;;;;;;;;;;;14.80;99.90;;;13.09;86.31;100468.34;10339247;28;19945;-87
2022/10/25 18:33:54;;;;;;;;;;;14.80;99.90;;;13.12;86.29;100465.31;10364313;28;19958;-87
2022/10/25 18:38:57;;;;;;;;;;;14.90;99.90;;;13.19;86.30;100465.41;10353254;28;20401;-88
2022/10/25 18:44:01;;;;;;;;;;;15.00;99.90;;;13.25;86.35;100467.41;10327524;28;19938;-87
2022/10/25 18:49:04;;;;;;;;;;;15.00;99.90;;;13.31;85.79;100472.06;10345106;28;20412;-87
2022/10/25 18:54:08;;;;;;;;;;;15.10;99.90;;;13.36;85.60;100460.81;10372038;28;19940;-87
2022/10/25 18:59:11;;;;;;;;;;;15.10;99.90;;;13.40;85.03;100456.78;10341424;28;19934;-86
2022/10/25 19:04:14;;;;;;;;;;;15.10;99.90;;;13.42;84.75;100457.44;10347982;28;19933;-87
2022/10/25 19:09:17;;;;;;;;;;;15.20;99.90;;;13.39;84.37;100455.13;10348334;28;19942;-87
2022/10/25 19:14:20;;;;;;;;;;;15.20;99.90;;;13.33;84.11;100459.34;10311260;28;19985;-88
2022/10/25 19:19:22;;;;;;;;;;;15.10;99.90;;;13.21;83.72;100467.97;10352163;28;19934;-88
2022/10/25 19:24:25;;;;;;;;;;;15.10;99.90;;;13.05;84.07;100471.53;10335470;28;19940;-89
2022/10/25 19:29:28;;;;;;;;;;;14.90;99.90;;;12.96;84.21;100473.44;10350300;28;19934;-87
2022/10/25 19:34:31;;;;;;;;;;;14.80;99.90;;;12.83;84.52;100475.84;10335260;28;20029;-87
2022/10/25 19:39:34;;;;;;;;;;;14.70;99.90;;;12.74;84.80;100487.56;10319483;28;19941;-88
2022/10/25 19:44:38;;;;;;;;;;;14.60;99.90;;;12.62;84.91;100495.13;10359103;28;19934;-88
2022/10/25 19:49:41;;;;;;;;;;;14.50;99.90;;;12.47;85.16;100480.84;10338540;28;19940;-87
2022/10/25 19:54:43;;;;;;;;;;;14.30;99.90;;;12.42;85.79;100486.72;10346732;28;19934;-88
2022/10/25 19:59:46;;;;;;;;;;;14.30;99.90;;;12.42;86.39;100489.38;10363079;28;19933;-88
2022/10/25 20:04:49;;;;;;;;;;;14.20;99.90;;;12.44;86.35;100491.88;10358689;28;19938;-87
2022/10/25 20:09:52;;;;;;;;;;;14.20;99.90;;;12.39;86.61;100500.38;10327673;28;19934;-88
2022/10/25 20:14:56;;;;;;;;;;;14.20;99.90;;;12.33;86.48;100507.22;10320223;28;20406;-88
2022/10/25 20:19:59;;;;;;;;;;;14.20;99.90;;;12.20;86.46;100506.09;10345530;28;19938;-88
2022/10/25 20:25:03;;;;;;;;;;;14.10;99.90;;;12.07;86.40;100513.81;10343778;28;19934;-87
2022/10/25 20:30:06;;;;;;;;;;;13.90;99.90;;;11.89;86.48;100509.50;10324035;28;19938;-89
2022/10/25 20:35:09;;;;;;;;;;;13.80;99.90;;;11.66;86.87;100513.81;10324420;28;19961;-89
2022/10/25 20:40:12;;;;;;;;;;;13.60;99.90;;;11.55;87.32;100530.13;10319069;28;19934;-89
2022/10/25 20:45:14;;;;;;;;;;;13.50;99.90;;;11.42;87.48;100536.75;10349204;28;20460;-86
2022/10/25 20:50:17;;;;;;;;;;;13.30;99.90;;;11.26;87.58;100536.72;10334354;28;19933;-87
2022/10/25 20:55:21;;;;;;;;;;;13.20;99.90;;;11.06;87.75;100548.69;10343888;28;19933;-86
2022/10/25 21:00:24;;;;;;;;;;;13.00;99.90;;;10.87;88.11;100544.47;10341937;28;19941;-86
2022/10/25 21:05:27;;;;;;;;;;;12.80;99.90;;;10.69;88.53;100550.72;10342840;28;20377;-86
2022/10/25 21:10:30;;;;;;;;;;;12.60;99.90;;;10.60;89.01;100548.16;10319155;28;19985;-86
2022/10/25 21:15:33;;;;;;;;;;;12.50;99.90;;;10.56;89.58;100545.03;10336274;28;19934;-86
2022/10/25 21:20:36;;;;;;;;;;;12.50;99.90;;;10.51;90.03;100539.34;10360334;28;19937;-86
2022/10/25 21:25:39;;;;;;;;;;;12.40;99.90;;;10.46;90.07;100549.63;10331388;28;19934;-85
2022/10/25 21:30:44;;;;;;;;;;;12.40;99.90;;;10.38;90.61;100547.75;10341889;28;20382;-86
2022/10/25 21:35:47;;;;;;;;;;;12.30;99.90;;;10.44;91.86;100546.28;10344877;28;20004;-86
2022/10/25 21:40:50;;;;;;;;;;;12.30;99.90;;;10.81;93.78;100545.94;10344532;28;19933;-87
2022/10/25 21:45:57;;;;;;;;;;;12.50;99.90;;;11.24;94.20;100546.72;10351580;28;20410;-86
2022/10/25 21:51:00;;;;;;;;;;;12.90;99.90;;;11.59;93.74;100548.25;10324193;28;19940;-86
2022/10/25 21:56:14;;;;;;;;;;;13.30;99.90;;;11.90;92.98;100542.28;10334624;28;19934;-87
2022/10/25 22:01:19;;;;;;;;;;;13.60;99.90;;;12.16;91.52;100545.56;10335247;28;20440;-86
2022/10/25 22:06:26;;;;;;;;;;;13.80;99.90;;;12.39;90.02;100542.19;10321447;28;19934;-87
2022/10/25 22:11:31;;;;;;;;;;;14.10;99.90;;;12.55;88.62;100545.63;10358661;28;19934;-86
2022/10/25 22:16:34;;;;;;;;;;;14.30;99.90;;;12.66;87.34;100544.44;10323090;28;19934;-87
2022/10/25 22:21:38;;;;;;;;;;;14.40;99.90;;;12.57;85.43;100548.94;10319605;28;20048;-87
2022/10/25 22:26:43;;;;;;;;;;;14.40;99.90;;;12.26;84.39;100553.38;10343156;28;19985;-88
2022/10/25 22:31:46;;;;;;;;;;;14.20;99.90;;;11.87;84.37;100564.75;10331212;28;19984;-88
2022/10/25 22:36:48;;;;;;;;;;;13.80;99.90;;;11.55;84.57;100560.22;10312675;28;19938;-88
2022/10/25 22:41:52;;;;;;;;;;;13.50;99.90;;;11.24;84.80;100558.19;10362554;28;19964;-86
2022/10/25 22:46:55;;;;;;;;;;;13.20;99.90;;;10.98;85.38;100571.59;10371190;28;19940;-86
2022/10/25 22:51:58;;;;;;;;;;;13.00;99.90;;;10.72;85.56;100570.81;10349682;28;19962;-87
2022/10/25 22:57:01;;;;;;;;;;;12.70;99.90;;;10.52;86.04;100558.78;10332716;28;20001;-87